createdAt,value
2022-08-16T00:00:48.093Z,99.99
2022-08-16T00:01:47.388Z,99.99
2022-08-16T00:02:47.731Z,99.99
2022-08-16T00:03:47.778Z,99.99
2022-08-16T00:04:48.017Z,99.99
2022-08-16T00:05:49.113Z,99.99
2022-08-16T00:06:49.463Z,99.99
2022-08-16T00:07:48.678Z,99.99
2022-08-16T00:08:49.860Z,99.99
2022-08-16T00:09:49.077Z,99.99
2022-08-16T00:10:49.308Z,99.99
2022-08-16T00:11:52.701Z,99.99
2022-08-16T00:12:50.729Z,99.99
2022-08-16T00:13:54.222Z,99.99
2022-08-16T00:14:51.107Z,99.99
2022-08-16T00:15:54.136Z,99.99
2022-08-16T00:17:06.680Z,99.99
2022-08-16T00:17:57.065Z,99.99
2022-08-16T00:18:52.215Z,99.99
2022-08-16T00:19:53.479Z,99.99
2022-08-16T00:20:51.631Z,99.99
2022-08-16T00:21:53.244Z,99.99
2022-08-16T00:22:52.016Z,99.99
2022-08-16T00:23:52.308Z,99.99
2022-08-16T00:24:52.435Z,99.99
2022-08-16T00:26:35.104Z,99.99
2022-08-16T00:26:53.858Z,99.99
2022-08-16T00:27:53.112Z,99.99
2022-08-16T00:28:54.935Z,99.99
2022-08-16T00:30:08.512Z,99.99
2022-08-16T00:30:54.760Z,99.99
2022-08-16T00:32:01.470Z,99.99
2022-08-16T00:32:57.255Z,99.99
2022-08-16T00:33:54.510Z,99.99
2022-08-16T00:34:54.737Z,99.99
2022-08-16T00:35:56.040Z,99.99
2022-08-16T00:36:55.958Z,99.99
2022-08-16T00:37:58.252Z,99.99
2022-08-16T00:38:56.304Z,99.99
2022-08-16T00:39:58.476Z,99.99
2022-08-16T00:40:56.286Z,99.99
2022-08-16T00:41:56.525Z,99.99
2022-08-16T00:42:56.772Z,99.99
2022-08-16T00:43:57.014Z,99.99
2022-08-16T00:44:57.228Z,99.99
2022-08-16T00:45:59.911Z,99.99
2022-08-16T00:47:06.188Z,99.99
2022-08-16T00:47:58.895Z,99.99
2022-08-16T00:48:58.120Z,99.99
2022-08-16T00:49:58.366Z,99.99
2022-08-16T00:50:58.610Z,99.99
2022-08-16T00:51:58.791Z,99.99
2022-08-16T00:52:59.304Z,99.99
2022-08-16T00:53:59.317Z,99.99
2022-08-16T00:54:59.620Z,99.99
2022-08-16T00:55:59.818Z,99.99
2022-08-16T00:57:00.363Z,99.99
2022-08-16T00:58:00.885Z,99.99
2022-08-16T00:59:01.401Z,99.99
2022-08-16T01:00:01.036Z,99.99
2022-08-16T01:01:01.000Z,99.99
2022-08-16T01:02:01.219Z,99.99
2022-08-16T01:03:02.522Z,99.99
2022-08-16T01:04:01.751Z,99.99
2022-08-16T01:05:10.812Z,99.99
2022-08-16T01:06:32.663Z,99.99
2022-08-16T01:07:03.464Z,99.99
2022-08-16T01:08:02.678Z,99.99
2022-08-16T01:09:03.841Z,99.99
2022-08-16T01:10:03.089Z,99.99
2022-08-16T01:11:04.388Z,99.99
2022-08-16T01:12:03.577Z,99.99
2022-08-16T01:13:04.597Z,99.99
2022-08-16T01:14:04.050Z,99.99
2022-08-16T01:15:04.273Z,99.99
2022-08-16T01:16:04.500Z,99.99
2022-08-16T01:17:08.409Z,99.99
2022-08-16T01:18:05.002Z,99.99
2022-08-16T01:19:05.164Z,99.99
2022-08-16T01:20:24.497Z,99.99
2022-08-16T01:21:06.559Z,99.99
2022-08-16T01:22:49.828Z,99.99
2022-08-16T01:23:08.560Z,99.99
2022-08-16T01:24:06.153Z,99.99
2022-08-16T01:25:07.341Z,99.99
2022-08-16T01:26:34.298Z,99.99
2022-08-16T01:27:07.793Z,99.99
2022-08-16T01:28:07.027Z,99.99
2022-08-16T01:29:09.856Z,99.99
2022-08-16T01:30:20.584Z,99.99
2022-08-16T01:31:08.672Z,99.99
2022-08-16T01:32:09.213Z,99.99
2022-08-16T01:33:15.026Z,99.99
2022-08-16T01:34:09.391Z,99.99
2022-08-16T01:35:16.749Z,99.99
2022-08-16T01:36:12.293Z,99.99
2022-08-16T01:37:09.086Z,99.99
2022-08-16T01:38:09.195Z,99.99
2022-08-16T01:39:11.634Z,99.99
2022-08-16T01:40:09.682Z,99.99
2022-08-16T01:41:09.800Z,99.99
2022-08-16T01:42:13.093Z,99.99
2022-08-16T01:43:10.305Z,99.99
2022-08-16T01:44:10.573Z,99.99
2022-08-16T01:45:10.801Z,99.99
2022-08-16T01:46:37.684Z,99.99
2022-08-16T01:47:12.343Z,99.99
2022-08-16T01:48:19.547Z,99.99
2022-08-16T01:49:12.772Z,99.99
2022-08-16T01:50:42.407Z,99.99
2022-08-16T01:51:16.969Z,99.99
2022-08-16T01:52:27.755Z,99.99
2022-08-16T01:53:13.600Z,99.99
2022-08-16T01:54:13.253Z,99.99
2022-08-16T01:55:13.013Z,99.99
2022-08-16T01:56:24.946Z,99.99
2022-08-16T01:57:14.465Z,99.99
2022-08-16T01:58:13.709Z,99.99
2022-08-16T01:59:15.705Z,99.99
2022-08-16T02:00:14.119Z,99.99
2022-08-16T02:01:15.334Z,99.99
2022-08-16T02:02:27.438Z,99.99
2022-08-16T02:03:15.703Z,99.99
2022-08-16T02:04:14.943Z,99.99
2022-08-16T02:05:16.116Z,99.99
2022-08-16T02:06:15.341Z,99.99
2022-08-16T02:07:16.520Z,99.99
2022-08-16T02:08:33.857Z,99.99
2022-08-16T02:09:17.753Z,99.99
2022-08-16T02:10:16.247Z,99.99
2022-08-16T02:11:16.480Z,99.99
2022-08-16T02:12:49.559Z,99.99
2022-08-16T02:13:18.008Z,99.99
2022-08-16T02:14:17.943Z,99.99
2022-08-16T02:15:17.430Z,99.99
2022-08-16T02:16:19.088Z,99.99
2022-08-16T02:17:17.949Z,99.99
2022-08-16T02:18:18.653Z,99.99
2022-08-16T02:19:18.611Z,99.99
2022-08-16T02:20:18.633Z,99.99
2022-08-16T02:21:31.045Z,99.99
2022-08-16T02:22:35.822Z,99.99
2022-08-16T02:23:20.300Z,99.99
2022-08-16T02:24:32.704Z,99.99
2022-08-16T02:25:20.708Z,99.99
2022-08-16T02:26:19.937Z,99.99
2022-08-16T02:27:20.181Z,99.99
2022-08-16T02:28:20.401Z,99.99
2022-08-16T02:29:20.883Z,99.99
2022-08-16T02:30:35.805Z,99.99
2022-08-16T02:31:21.988Z,99.99
2022-08-16T02:32:49.932Z,99.99
2022-08-16T02:33:24.311Z,99.99
2022-08-16T02:34:21.646Z,99.99
2022-08-16T02:35:23.230Z,99.99
2022-08-16T02:36:48.032Z,99.99
2022-08-16T02:37:23.277Z,99.99
2022-08-16T02:38:22.507Z,99.99
2022-08-16T02:39:23.118Z,99.99
2022-08-16T02:40:22.939Z,99.99
2022-08-16T02:41:23.182Z,99.99
2022-08-16T02:42:23.396Z,99.99
2022-08-16T02:43:26.933Z,99.99
2022-08-16T02:44:26.983Z,99.99
2022-08-16T02:45:24.687Z,99.99
2022-08-16T02:46:30.194Z,99.99
2022-08-16T02:47:25.832Z,99.99
2022-08-16T02:48:29.928Z,99.99
2022-08-16T02:50:52.610Z,99.99
2022-08-16T02:50:53.545Z,99.99
2022-08-16T02:51:26.414Z,99.99
2022-08-16T02:52:29.161Z,99.99
2022-08-16T02:53:25.835Z,99.99
2022-08-16T02:54:26.076Z,99.99
2022-08-16T02:55:40.760Z,99.99
2022-08-16T02:56:32.161Z,99.99
2022-08-16T02:57:27.882Z,99.99
2022-08-16T02:58:27.045Z,99.99
2022-08-16T02:59:27.311Z,99.99
2022-08-16T03:00:33.632Z,99.99
2022-08-16T03:01:37.237Z,99.99
2022-08-16T03:02:32.023Z,99.99
2022-08-16T03:04:39.640Z,99.99
2022-08-16T03:04:50.281Z,99.99
2022-08-16T03:05:30.896Z,99.99
2022-08-16T03:06:41.392Z,99.99
2022-08-16T03:07:30.145Z,99.99
2022-08-16T03:08:50.787Z,99.99
2022-08-16T03:09:32.682Z,99.99
2022-08-16T03:10:33.578Z,99.99
2022-08-16T03:11:35.591Z,99.99
2022-08-16T03:12:36.744Z,99.99
2022-08-16T03:13:31.367Z,99.99
2022-08-16T03:14:31.544Z,99.99
2022-08-16T03:15:30.843Z,99.99
2022-08-16T03:16:37.591Z,99.99
2022-08-16T03:17:32.454Z,99.99
2022-08-16T03:18:34.190Z,99.99
2022-08-16T03:19:46.815Z,99.99
2022-08-16T03:20:34.283Z,99.99
2022-08-16T03:21:37.686Z,99.99
2022-08-16T03:22:33.377Z,99.99
2022-08-16T03:23:35.888Z,99.99
2022-08-16T03:24:32.984Z,99.99
2022-08-16T03:25:40.861Z,99.99
2022-08-16T03:26:34.483Z,99.99
2022-08-16T03:27:33.678Z,99.99
2022-08-16T03:28:33.903Z,99.99
2022-08-16T03:29:34.260Z,99.99
2022-08-16T03:30:34.497Z,99.99
2022-08-16T03:31:40.500Z,99.99
2022-08-16T03:32:35.902Z,99.99
2022-08-16T03:33:35.133Z,99.99
2022-08-16T03:34:35.374Z,99.99
2022-08-16T03:35:35.602Z,99.99
2022-08-16T03:36:35.823Z,99.99
2022-08-16T03:37:49.060Z,99.99
2022-08-16T03:38:37.276Z,99.99
2022-08-16T03:39:42.886Z,99.99
2022-08-16T03:40:37.733Z,99.99
2022-08-16T03:41:50.715Z,99.99
2022-08-16T03:43:00.420Z,99.99
2022-08-16T03:43:51.949Z,99.99
2022-08-16T03:44:44.515Z,99.99
2022-08-16T03:45:38.892Z,99.99
2022-08-16T03:46:48.116Z,99.99
2022-08-16T03:48:51.510Z,99.99
2022-08-16T03:49:52.438Z,99.99
2022-08-16T03:51:00.036Z,99.99
2022-08-16T03:51:52.944Z,99.99
2022-08-16T03:52:52.787Z,99.99
2022-08-16T03:54:00.947Z,99.99
2022-08-16T03:54:57.897Z,99.99
2022-08-16T03:55:53.438Z,99.99
2022-08-16T03:56:57.152Z,99.99
2022-08-16T03:57:55.588Z,99.99
2022-08-16T03:58:52.856Z,99.99
2022-08-16T03:59:53.017Z,99.99
2022-08-16T04:00:56.926Z,99.99
2022-08-16T04:01:54.288Z,99.99
2022-08-16T04:02:53.437Z,99.99
2022-08-16T04:03:55.189Z,99.99
2022-08-16T04:04:53.702Z,99.99
2022-08-16T04:05:54.112Z,99.99
2022-08-16T04:06:53.958Z,99.99
2022-08-16T04:07:54.112Z,99.99
2022-08-16T04:08:54.268Z,99.99
2022-08-16T04:09:54.436Z,99.99
2022-08-16T04:10:54.919Z,99.99
2022-08-16T04:11:54.755Z,99.99
2022-08-16T04:13:00.630Z,99.99
2022-08-16T04:14:01.060Z,99.99
2022-08-16T04:14:56.100Z,99.99
2022-08-16T04:15:55.256Z,99.99
2022-08-16T04:16:55.439Z,99.99
2022-08-16T04:17:55.594Z,99.99
2022-08-16T04:19:01.335Z,99.99
2022-08-16T04:19:58.102Z,99.99
2022-08-16T04:20:56.392Z,99.99
2022-08-16T04:21:56.826Z,99.99
2022-08-16T04:22:56.345Z,99.99
2022-08-16T04:23:56.505Z,99.99
2022-08-16T04:24:59.493Z,99.99
2022-08-16T04:25:56.851Z,99.99
2022-08-16T04:26:57.961Z,99.99
2022-08-16T04:27:57.106Z,99.99
2022-08-16T04:29:16.350Z,99.99
2022-08-16T04:30:02.916Z,99.99
2022-08-16T04:30:58.673Z,99.99
2022-08-16T04:31:58.318Z,99.99
2022-08-16T04:32:57.947Z,99.99
2022-08-16T04:33:58.120Z,99.99
2022-08-16T04:34:59.530Z,99.99
2022-08-16T04:35:58.427Z,99.99
2022-08-16T04:36:58.584Z,99.99
2022-08-16T04:37:58.742Z,99.99
2022-08-16T04:38:58.911Z,99.99
2022-08-16T04:39:59.049Z,99.99
2022-08-16T04:40:59.097Z,99.99
2022-08-16T04:41:59.213Z,99.99
2022-08-16T04:43:00.319Z,99.99
2022-08-16T04:43:59.476Z,99.99
2022-08-16T04:45:02.002Z,99.99
2022-08-16T04:46:00.779Z,99.99
2022-08-16T04:47:01.027Z,99.99
2022-08-16T04:48:00.047Z,99.99
2022-08-16T04:49:00.186Z,99.99
2022-08-16T04:50:00.797Z,99.99
2022-08-16T04:51:00.506Z,99.99
2022-08-16T04:52:00.688Z,99.99
2022-08-16T04:53:00.814Z,99.99
2022-08-16T04:54:00.983Z,99.99
2022-08-16T04:55:01.125Z,99.99
2022-08-16T04:56:01.308Z,99.99
2022-08-16T04:57:01.471Z,99.99
2022-08-16T04:58:01.583Z,99.99
2022-08-16T04:59:02.709Z,99.99
2022-08-16T05:00:32.717Z,99.99
2022-08-16T05:01:02.982Z,99.99
2022-08-16T05:02:03.157Z,99.99
2022-08-16T05:03:07.571Z,99.99
2022-08-16T05:04:03.424Z,99.99
2022-08-16T05:05:02.573Z,99.99
2022-08-16T05:06:04.982Z,99.99
2022-08-16T05:07:02.934Z,99.99
2022-08-16T05:08:27.967Z,99.99
2022-08-16T05:09:04.127Z,99.99
2022-08-16T05:10:03.287Z,99.99
2022-08-16T05:11:05.469Z,99.99
2022-08-16T05:12:03.621Z,99.99
2022-08-16T05:13:03.805Z,99.99
2022-08-16T05:14:06.873Z,99.99
2022-08-16T05:15:04.075Z,99.99
2022-08-16T05:16:04.233Z,99.99
2022-08-16T05:17:04.363Z,99.99
2022-08-16T05:18:04.577Z,99.99
2022-08-16T05:19:04.724Z,99.99
2022-08-16T05:20:38.906Z,99.99
2022-08-16T05:21:10.950Z,99.99
2022-08-16T05:22:06.055Z,99.99
2022-08-16T05:23:06.383Z,99.99
2022-08-16T05:24:06.146Z,99.99
2022-08-16T05:25:08.832Z,99.99
2022-08-16T05:26:05.733Z,99.99
2022-08-16T05:27:11.430Z,99.99
2022-08-16T05:28:06.950Z,99.99
2022-08-16T05:29:06.123Z,99.99
2022-08-16T05:30:34.851Z,99.72
2022-08-16T05:31:07.379Z,99.32
2022-08-16T05:32:33.722Z,99.72
2022-08-16T05:33:08.875Z,99.32
2022-08-16T05:34:17.784Z,99.42
2022-08-16T05:35:10.817Z,99.72
2022-08-16T05:36:14.088Z,98.97
2022-08-16T05:37:08.161Z,98.02
2022-08-16T05:38:32.407Z,98.11
2022-08-16T05:39:08.637Z,98.42
2022-08-16T05:40:07.677Z,98.11
2022-08-16T05:41:09.340Z,98.11
2022-08-16T05:42:07.896Z,98.52
2022-08-16T05:43:08.057Z,98.47
2022-08-16T05:44:22.533Z,98.27
2022-08-16T05:45:09.319Z,97.67
2022-08-16T05:46:28.711Z,97.77
2022-08-16T05:47:09.575Z,98.17
2022-08-16T05:48:09.672Z,97.97
2022-08-16T05:49:09.510Z,97.57
2022-08-16T05:50:08.910Z,97.77
2022-08-16T05:51:10.000Z,97.47
2022-08-16T05:52:11.761Z,97.72
2022-08-16T05:53:09.951Z,97.32
2022-08-16T05:54:11.145Z,97.32
2022-08-16T05:55:09.647Z,96.82
2022-08-16T05:56:09.730Z,97.02
2022-08-16T05:57:13.473Z,96.82
2022-08-16T05:58:09.978Z,96.72
2022-08-16T05:59:11.115Z,96.97
2022-08-16T06:00:10.320Z,95.87
2022-08-16T06:01:10.395Z,95.57
2022-08-16T06:02:10.438Z,96.27
2022-08-16T06:03:13.171Z,95.57
2022-08-16T06:04:12.916Z,95.37
2022-08-16T06:05:11.147Z,95.62
2022-08-16T06:06:10.953Z,95.53
2022-08-16T06:07:24.356Z,95.23
2022-08-16T06:08:32.153Z,94.88
2022-08-16T06:09:12.258Z,93.93
2022-08-16T06:10:11.393Z,93.98
2022-08-16T06:11:13.443Z,93.98
2022-08-16T06:12:11.679Z,93.68
2022-08-16T06:13:11.847Z,93.38
2022-08-16T06:14:13.135Z,93.38
2022-08-16T06:15:12.094Z,92.63
2022-08-16T06:16:18.046Z,91.33
2022-08-16T06:17:13.446Z,92.24
2022-08-16T06:18:13.556Z,92.03
2022-08-16T06:19:12.615Z,91.09
2022-08-16T06:20:12.805Z,90.69
2022-08-16T06:21:12.934Z,91.49
2022-08-16T06:22:37.657Z,90.65
2022-08-16T06:23:17.589Z,90.75
2022-08-16T06:24:53.345Z,89.85
2022-08-16T06:25:19.688Z,90.35
2022-08-16T06:26:14.416Z,89.61
2022-08-16T06:27:13.565Z,89.31
2022-08-16T06:28:16.681Z,88.26
2022-08-16T06:29:13.824Z,88.26
2022-08-16T06:30:14.014Z,86.52
2022-08-16T06:31:15.155Z,86.43
2022-08-16T06:32:27.846Z,87.02
2022-08-16T06:33:19.878Z,86.72
2022-08-16T06:34:56.081Z,86.68
2022-08-16T06:35:15.565Z,85.49
2022-08-16T06:36:14.899Z,85.14
2022-08-16T06:37:14.794Z,85.14
2022-08-16T06:38:33.790Z,84.45
2022-08-16T06:39:16.005Z,84.70
2022-08-16T06:40:15.787Z,83.11
2022-08-16T06:41:15.332Z,83.21
2022-08-16T06:42:18.388Z,81.88
2022-08-16T06:43:15.562Z,81.77
2022-08-16T06:44:21.519Z,81.44
2022-08-16T06:45:17.423Z,81.50
2022-08-16T06:46:15.996Z,79.47
2022-08-16T06:47:16.837Z,79.83
2022-08-16T06:48:18.885Z,77.75
2022-08-16T06:49:16.239Z,77.41
2022-08-16T06:50:22.150Z,78.50
2022-08-16T06:51:17.455Z,77.31
2022-08-16T06:52:59.615Z,76.48
2022-08-16T06:53:18.087Z,75.65
2022-08-16T06:54:16.834Z,75.31
2022-08-16T06:55:17.822Z,74.58
2022-08-16T06:56:23.157Z,74.29
2022-08-16T06:57:18.158Z,75.48
2022-08-16T06:58:22.848Z,74.15
2022-08-16T06:59:18.266Z,71.64
2022-08-16T07:00:24.169Z,71.83
2022-08-16T07:01:23.032Z,70.21
2022-08-16T07:02:33.052Z,69.98
2022-08-16T07:03:27.601Z,69.79
2022-08-16T07:04:32.704Z,70.48
2022-08-16T07:05:18.822Z,70.25
2022-08-16T07:06:17.926Z,68.73
2022-08-16T07:07:17.966Z,68.10
2022-08-16T07:08:18.093Z,68.60
2022-08-16T07:09:18.235Z,67.41
2022-08-16T07:10:18.278Z,65.90
2022-08-16T07:11:18.405Z,66.39
2022-08-16T07:12:18.494Z,66.49
2022-08-16T07:13:43.945Z,65.86
2022-08-16T07:14:24.432Z,66.88
2022-08-16T07:15:19.836Z,66.92
2022-08-16T07:16:20.585Z,67.02
2022-08-16T07:17:18.947Z,66.13
2022-08-16T07:18:19.059Z,65.08
2022-08-16T07:19:19.473Z,65.17
2022-08-16T07:20:35.454Z,66.30
2022-08-16T07:21:20.371Z,64.09
2022-08-16T07:22:37.965Z,63.31
2022-08-16T07:23:21.438Z,65.05
2022-08-16T07:24:30.581Z,66.42
2022-08-16T07:25:20.675Z,66.69
2022-08-16T07:26:24.871Z,65.44
2022-08-16T07:27:20.803Z,64.42
2022-08-16T07:28:21.001Z,64.03
2022-08-16T07:29:20.045Z,63.01
2022-08-16T07:30:39.543Z,63.77
2022-08-16T07:31:21.132Z,62.13
2022-08-16T07:32:20.286Z,61.11
2022-08-16T07:33:51.311Z,63.31
2022-08-16T07:34:35.685Z,63.34
2022-08-16T07:35:21.456Z,64.32
2022-08-16T07:36:21.679Z,64.12
2022-08-16T07:37:23.244Z,63.87
2022-08-16T07:38:31.842Z,63.96
2022-08-16T07:39:21.984Z,62.65
2022-08-16T07:40:31.833Z,62.33
2022-08-16T07:41:21.966Z,61.51
2022-08-16T07:42:28.369Z,61.93
2022-08-16T07:43:22.149Z,62.88
2022-08-16T07:44:21.273Z,63.84
2022-08-16T07:45:21.359Z,62.49
2022-08-16T07:46:38.470Z,60.82
2022-08-16T07:47:24.722Z,61.02
2022-08-16T07:48:22.581Z,60.82
2022-08-16T07:49:22.679Z,61.31
2022-08-16T07:50:56.213Z,61.05
2022-08-16T07:51:22.686Z,62.03
2022-08-16T07:52:21.802Z,61.11
2022-08-16T07:53:21.900Z,62.40
2022-08-16T07:54:32.249Z,63.05
2022-08-16T07:55:23.107Z,61.64
2022-08-16T07:56:22.082Z,62.20
2022-08-16T07:57:24.511Z,61.21
2022-08-16T07:58:34.765Z,61.31
2022-08-16T07:59:23.286Z,61.90
2022-08-16T08:00:22.399Z,62.52
2022-08-16T08:01:22.464Z,61.90
2022-08-16T08:02:22.471Z,60.92
2022-08-16T08:03:23.649Z,63.28
2022-08-16T08:04:23.559Z,61.97
2022-08-16T08:05:25.291Z,59.81
2022-08-16T08:06:24.772Z,60.99
2022-08-16T08:07:23.014Z,61.35
2022-08-16T08:08:49.128Z,59.09
2022-08-16T08:09:23.850Z,59.58
2022-08-16T08:10:29.292Z,59.22
2022-08-16T08:11:24.076Z,60.92
2022-08-16T08:12:32.694Z,61.21
2022-08-16T08:13:41.990Z,61.48
2022-08-16T08:14:29.809Z,61.80
2022-08-16T08:15:25.446Z,61.15
2022-08-16T08:16:30.658Z,61.24
2022-08-16T08:17:24.221Z,61.11
2022-08-16T08:18:30.347Z,61.74
2022-08-16T08:19:24.372Z,60.14
2022-08-16T08:20:27.852Z,58.70
2022-08-16T08:21:26.218Z,60.07
2022-08-16T08:22:23.371Z,59.39
2022-08-16T08:23:23.469Z,58.76
2022-08-16T08:24:31.687Z,59.55
2022-08-16T08:25:24.541Z,59.06
2022-08-16T08:26:24.302Z,58.80
2022-08-16T08:27:23.900Z,58.37
2022-08-16T08:28:23.734Z,62.04
2022-08-16T08:29:24.762Z,60.05
2022-08-16T08:30:51.694Z,59.39
2022-08-16T08:31:24.863Z,59.09
2022-08-16T08:32:58.459Z,60.00
2022-08-16T08:33:24.852Z,59.28
2022-08-16T08:34:23.859Z,58.89
2022-08-16T08:35:24.404Z,59.39
2022-08-16T08:36:23.923Z,61.18
2022-08-16T08:37:24.922Z,58.99
2022-08-16T08:38:45.101Z,59.58
2022-08-16T08:39:24.941Z,58.05
2022-08-16T08:40:24.711Z,57.40
2022-08-16T08:41:28.305Z,58.06
2022-08-16T08:42:26.576Z,58.45
2022-08-16T08:43:23.955Z,58.48
2022-08-16T08:44:29.087Z,57.31
2022-08-16T08:45:46.964Z,56.62
2022-08-16T08:46:25.036Z,56.49
2022-08-16T08:47:24.131Z,56.01
2022-08-16T08:48:33.570Z,57.67
2022-08-16T08:49:46.176Z,56.20
2022-08-16T08:50:31.984Z,56.20
2022-08-16T08:51:25.054Z,56.82
2022-08-16T08:52:34.868Z,56.55
2022-08-16T08:53:29.948Z,56.32
2022-08-16T08:54:25.084Z,56.55
2022-08-16T08:55:24.078Z,56.84
2022-08-16T08:56:25.328Z,56.72
2022-08-16T08:57:24.034Z,55.37
2022-08-16T08:58:23.991Z,55.76
2022-08-16T08:59:24.963Z,56.09
2022-08-16T09:00:26.867Z,56.03
2022-08-16T09:01:31.841Z,56.69
2022-08-16T09:02:24.956Z,55.85
2022-08-16T09:03:23.971Z,52.52
2022-08-16T09:04:24.056Z,52.74
2022-08-16T09:05:23.955Z,53.09
2022-08-16T09:06:24.924Z,55.24
2022-08-16T09:07:23.995Z,54.73
2022-08-16T09:08:26.553Z,54.53
2022-08-16T09:09:23.923Z,53.94
2022-08-16T09:10:24.027Z,55.32
2022-08-16T09:11:40.827Z,53.58
2022-08-16T09:12:36.587Z,54.56
2022-08-16T09:13:24.866Z,55.05
2022-08-16T09:14:25.014Z,56.10
2022-08-16T09:15:24.139Z,56.15
2022-08-16T09:17:02.819Z,53.47
2022-08-16T09:17:54.920Z,53.18
2022-08-16T09:18:26.851Z,54.80
2022-08-16T09:19:33.184Z,55.02
2022-08-16T09:20:25.407Z,55.08
2022-08-16T09:21:31.453Z,55.66
2022-08-16T09:22:24.631Z,55.76
2022-08-16T09:23:23.657Z,55.27
2022-08-16T09:24:48.803Z,57.38
2022-08-16T09:25:26.378Z,53.75
2022-08-16T09:26:45.522Z,53.58
2022-08-16T09:27:25.213Z,53.77
2022-08-16T09:29:13.634Z,54.17
2022-08-16T09:29:44.691Z,54.17
2022-08-16T09:30:34.333Z,52.67
2022-08-16T09:31:24.629Z,55.00
2022-08-16T09:32:28.737Z,52.33
2022-08-16T09:33:25.247Z,51.96
2022-08-16T09:34:23.424Z,52.33
2022-08-16T09:35:23.430Z,51.66
2022-08-16T09:36:32.073Z,51.86
2022-08-16T09:37:29.701Z,51.96
2022-08-16T09:38:32.025Z,51.46
2022-08-16T09:39:24.299Z,52.23
2022-08-16T09:40:33.048Z,51.83
2022-08-16T09:41:24.176Z,51.64
2022-08-16T09:42:23.167Z,51.83
2022-08-16T09:43:53.236Z,50.98
2022-08-16T09:45:09.238Z,52.25
2022-08-16T09:45:24.099Z,51.71
2022-08-16T09:46:44.444Z,51.22
2022-08-16T09:47:24.077Z,52.30
2022-08-16T09:48:44.194Z,52.47
2022-08-16T09:49:24.097Z,50.90
2022-08-16T09:50:23.308Z,51.86
2022-08-16T09:51:23.437Z,51.44
2022-08-16T09:52:22.995Z,50.17
2022-08-16T09:53:22.994Z,48.92
2022-08-16T09:54:22.982Z,49.16
2022-08-16T09:55:22.972Z,50.61
2022-08-16T09:56:22.891Z,49.02
2022-08-16T09:57:22.899Z,49.21
2022-08-16T09:58:41.461Z,49.95
2022-08-16T09:59:23.930Z,49.16
2022-08-16T10:00:42.644Z,50.29
2022-08-16T10:01:23.757Z,48.33
2022-08-16T10:02:25.883Z,48.04
2022-08-16T10:03:22.683Z,47.65
2022-08-16T10:04:31.698Z,48.72
2022-08-16T10:05:23.576Z,46.57
2022-08-16T10:06:22.568Z,48.41
2022-08-16T10:07:22.551Z,47.14
2022-08-16T10:08:26.307Z,48.63
2022-08-16T10:09:22.489Z,48.70
2022-08-16T10:10:30.518Z,48.16
2022-08-16T10:11:24.624Z,47.85
2022-08-16T10:12:22.259Z,49.26
2022-08-16T10:13:22.256Z,48.16
2022-08-16T10:14:24.849Z,48.53
2022-08-16T10:15:23.172Z,47.16
2022-08-16T10:16:22.347Z,47.53
2022-08-16T10:17:22.051Z,48.07
2022-08-16T10:19:01.033Z,48.05
2022-08-16T10:19:22.959Z,47.39
2022-08-16T10:20:21.942Z,46.70
2022-08-16T10:21:23.492Z,44.87
2022-08-16T10:22:23.036Z,44.31
2022-08-16T10:23:21.846Z,44.51
2022-08-16T10:24:28.034Z,44.97
2022-08-16T10:27:19.333Z,43.92
2022-08-16T10:27:20.234Z,44.60
2022-08-16T10:27:26.752Z,43.95
2022-08-16T10:28:32.060Z,46.06
2022-08-16T10:29:22.514Z,46.36
2022-08-16T10:30:28.569Z,47.63
2022-08-16T10:31:45.529Z,47.16
2022-08-16T10:32:22.348Z,47.28
2022-08-16T10:33:21.310Z,48.33
2022-08-16T10:34:30.932Z,46.26
2022-08-16T10:35:22.830Z,46.18
2022-08-16T10:36:38.982Z,47.08
2022-08-16T10:37:32.774Z,46.47
2022-08-16T10:38:27.280Z,46.45
2022-08-16T10:39:21.972Z,46.43
2022-08-16T10:40:29.955Z,45.01
2022-08-16T10:41:25.163Z,45.98
2022-08-16T10:42:20.812Z,45.67
2022-08-16T10:43:20.803Z,45.45
2022-08-16T10:44:20.819Z,46.16
2022-08-16T10:45:20.835Z,45.36
2022-08-16T10:46:33.917Z,45.26
2022-08-16T10:47:21.701Z,45.72
2022-08-16T10:48:27.448Z,46.68
2022-08-16T10:49:21.497Z,45.21
2022-08-16T10:50:20.562Z,45.69
2022-08-16T10:51:20.395Z,47.79
2022-08-16T10:52:21.349Z,48.11
2022-08-16T10:53:21.726Z,47.97
2022-08-16T10:54:29.608Z,47.18
2022-08-16T10:56:52.878Z,47.42
2022-08-16T10:57:21.253Z,49.04
2022-08-16T10:58:20.292Z,47.06
2022-08-16T10:59:45.125Z,46.79
2022-08-16T11:00:22.793Z,46.92
2022-08-16T11:01:43.338Z,44.57
2022-08-16T11:02:59.422Z,44.67
2022-08-16T11:05:05.639Z,42.77
2022-08-16T11:05:21.154Z,43.90
2022-08-16T11:06:21.521Z,43.93
2022-08-16T11:08:23.610Z,41.39
2022-08-16T11:09:25.810Z,40.33
2022-08-16T11:11:01.558Z,38.81
2022-08-16T11:11:20.793Z,40.58
2022-08-16T11:12:19.765Z,41.80
2022-08-16T11:14:20.675Z,39.96
2022-08-16T11:15:19.676Z,40.89
2022-08-16T11:16:27.579Z,42.97
2022-08-16T11:17:20.616Z,45.08
2022-08-16T11:19:03.061Z,44.45
2022-08-16T11:19:20.531Z,46.44
2022-08-16T11:21:28.490Z,42.69
2022-08-16T11:22:38.771Z,43.12
2022-08-16T11:23:20.357Z,42.65
2022-08-16T11:24:40.169Z,43.89
2022-08-16T11:26:24.012Z,44.91
2022-08-16T11:27:20.345Z,44.23
2022-08-16T11:29:20.088Z,44.55
2022-08-16T11:30:19.892Z,43.07
2022-08-16T11:31:20.078Z,42.34
2022-08-16T11:32:20.207Z,43.57
2022-08-16T11:33:19.025Z,41.60
2022-08-16T11:34:19.795Z,40.39
2022-08-16T11:35:19.054Z,40.64
2022-08-16T11:36:27.420Z,41.86
2022-08-16T11:37:27.186Z,39.84
2022-08-16T11:38:23.453Z,39.80
2022-08-16T11:39:19.733Z,40.80
2022-08-16T11:40:19.581Z,39.82
2022-08-16T11:41:18.587Z,39.22
2022-08-16T11:42:23.210Z,39.14
2022-08-16T11:43:19.544Z,41.03
2022-08-16T11:44:20.483Z,40.72
2022-08-16T11:45:19.483Z,40.11
2022-08-16T11:46:43.414Z,39.82
2022-08-16T11:47:19.409Z,41.46
2022-08-16T11:48:18.400Z,38.40
2022-08-16T11:49:18.378Z,38.98
2022-08-16T11:50:18.379Z,38.62
2022-08-16T11:51:18.357Z,39.61
2022-08-16T11:52:18.347Z,39.47
2022-08-16T11:53:18.268Z,41.14
2022-08-16T11:54:21.378Z,39.51
2022-08-16T11:55:18.233Z,41.20
2022-08-16T11:56:28.587Z,42.02
2022-08-16T11:57:19.218Z,42.85
2022-08-16T11:58:18.221Z,44.24
2022-08-16T11:59:18.212Z,43.67
2022-08-16T12:00:49.657Z,44.79
2022-08-16T12:01:19.257Z,42.89
2022-08-16T12:02:32.569Z,41.77
2022-08-16T12:03:19.175Z,41.63
2022-08-16T12:04:18.223Z,40.21
2022-08-16T12:05:18.145Z,39.18
2022-08-16T12:06:25.007Z,39.92
2022-08-16T12:07:19.098Z,40.54
2022-08-16T12:08:18.172Z,40.88
2022-08-16T12:09:18.112Z,40.91
2022-08-16T12:10:18.126Z,40.31
2022-08-16T12:11:18.128Z,39.47
2022-08-16T12:12:18.618Z,38.87
2022-08-16T12:13:18.157Z,40.23
2022-08-16T12:14:18.153Z,40.42
2022-08-16T12:15:18.178Z,41.16
2022-08-16T12:16:20.640Z,37.86
2022-08-16T12:17:18.148Z,37.65
2022-08-16T12:18:20.611Z,38.29
2022-08-16T12:19:18.152Z,39.53
2022-08-16T12:20:18.668Z,40.52
2022-08-16T12:21:18.103Z,40.91
2022-08-16T12:22:19.381Z,42.63
2022-08-16T12:23:18.151Z,42.04
2022-08-16T12:24:18.168Z,40.60
2022-08-16T12:25:18.190Z,41.80
2022-08-16T12:26:18.207Z,39.80
2022-08-16T12:27:18.222Z,37.49
2022-08-16T12:28:36.688Z,38.44
2022-08-16T12:29:19.192Z,39.82
2022-08-16T12:30:26.270Z,38.40
2022-08-16T12:31:19.193Z,39.41
2022-08-16T12:32:37.630Z,40.25
2022-08-16T12:33:25.434Z,41.63
2022-08-16T12:34:19.807Z,41.58
2022-08-16T12:35:19.137Z,41.99
2022-08-16T12:36:18.162Z,42.89
2022-08-16T12:37:18.173Z,42.71
2022-08-16T12:38:41.200Z,42.95
2022-08-16T12:39:19.192Z,43.46
2022-08-16T12:40:24.561Z,44.95
2022-08-16T12:41:25.383Z,44.95
2022-08-16T12:42:19.234Z,44.19
2022-08-16T12:43:18.202Z,45.00
2022-08-16T12:44:19.868Z,45.29
2022-08-16T12:45:19.073Z,45.61
2022-08-16T12:46:18.231Z,45.34
2022-08-16T12:47:18.279Z,45.92
2022-08-16T12:48:34.969Z,46.02
2022-08-16T12:49:19.356Z,45.83
2022-08-16T12:50:18.484Z,51.39
2022-08-16T12:51:22.176Z,45.31
2022-08-16T12:52:33.196Z,44.21
2022-08-16T12:53:19.628Z,43.54
2022-08-16T12:54:18.643Z,42.22
2022-08-16T12:55:18.714Z,41.86
2022-08-16T12:56:18.871Z,42.64
2022-08-16T12:57:18.781Z,42.61
2022-08-16T12:58:48.504Z,42.89
2022-08-16T12:59:20.602Z,44.45
2022-08-16T13:00:26.933Z,42.48
2022-08-16T13:01:22.701Z,39.88
2022-08-16T13:02:22.936Z,39.55